sensor_id;sensor_type;location;lat;lon;timestamp;pressure;altitude;pressure_sealevel;temperature;humidity
56514;BME280;62152;52.078;8.414;2023-02-03T00:00:50;100695.94;;;16.45;56.27
56514;BME280;62152;52.078;8.414;2023-02-03T00:04:51;100704.16;;;16.45;56.49
56514;BME280;62152;52.078;8.414;2023-02-03T00:08:55;100702.56;;;16.44;56.17
56514;BME280;62152;52.078;8.414;2023-02-03T00:12:57;100693.19;;;16.45;56.41
56514;BME280;62152;52.078;8.414;2023-02-03T00:16:58;100700.59;;;16.44;56.57
56514;BME280;62152;52.078;8.414;2023-02-03T00:20:59;100694.34;;;16.44;56.29
56514;BME280;62152;52.078;8.414;2023-02-03T00:25:01;100697.88;;;16.44;56.43
56514;BME280;62152;52.078;8.414;2023-02-03T00:29:02;100694.34;;;16.44;56.49
56514;BME280;62152;52.078;8.414;2023-02-03T00:33:04;100709.63;;;16.45;56.18
56514;BME280;62152;52.078;8.414;2023-02-03T00:37:04;100704.16;;;16.45;56.43
56514;BME280;62152;52.078;8.414;2023-02-03T00:41:07;100711.22;;;16.46;56.39
56514;BME280;62152;52.078;8.414;2023-02-03T00:45:08;100709.63;;;16.45;56.46
56514;BME280;62152;52.078;8.414;2023-02-03T00:49:09;100710.75;;;16.44;56.45
56514;BME280;62152;52.078;8.414;2023-02-03T00:53:10;100713.50;;;16.44;56.29
56514;BME280;62152;52.078;8.414;2023-02-03T00:57:12;100718.19;;;16.43;56.66
56514;BME280;62152;52.078;8.414;2023-02-03T01:01:13;100719.78;;;16.44;56.00
56514;BME280;62152;52.078;8.414;2023-02-03T01:05:14;100726.41;;;16.43;56.14
56514;BME280;62152;52.078;8.414;2023-02-03T01:09:16;100726.41;;;16.43;56.45
56514;BME280;62152;52.078;8.414;2023-02-03T01:13:18;100726.41;;;16.43;56.25
56514;BME280;62152;52.078;8.414;2023-02-03T01:17:18;100726.41;;;16.43;56.19
56514;BME280;62152;52.078;8.414;2023-02-03T01:21:22;100726.41;;;16.43;56.10
56514;BME280;62152;52.078;8.414;2023-02-03T01:25:23;100708.81;;;16.44;55.86
56514;BME280;62152;52.078;8.414;2023-02-03T01:29:25;100722.50;;;16.44;56.47
56514;BME280;62152;52.078;8.414;2023-02-03T01:33:26;100715.44;;;16.43;56.49
56514;BME280;62152;52.078;8.414;2023-02-03T01:37:26;100728.34;;;16.42;56.41
56514;BME280;62152;52.078;8.414;2023-02-03T01:41:31;100717.38;;;16.42;56.33
56514;BME280;62152;52.078;8.414;2023-02-03T01:45:35;100707.22;;;16.43;56.35
56514;BME280;62152;52.078;8.414;2023-02-03T01:49:39;100707.22;;;16.43;56.36
56514;BME280;62152;52.078;8.414;2023-02-03T01:53:44;100694.69;;;16.42;56.38
56514;BME280;62152;52.078;8.414;2023-02-03T01:57:50;100696.28;;;16.43;56.40
56514;BME280;62152;52.078;8.414;2023-02-03T02:01:58;100685.31;;;16.43;56.18
56514;BME280;62152;52.078;8.414;2023-02-03T02:06:04;100681.00;;;16.42;56.08
56514;BME280;62152;52.078;8.414;2023-02-03T02:10:07;100668.09;;;16.42;56.57
56514;BME280;62152;52.078;8.414;2023-02-03T02:14:09;100655.22;;;16.43;56.17
56514;BME280;62152;52.078;8.414;2023-02-03T02:18:48;100637.19;;;16.42;56.21
56514;BME280;62152;52.078;8.414;2023-02-03T02:28:29;100644.94;;;16.40;56.42
56514;BME280;62152;52.078;8.414;2023-02-03T02:33:09;100626.25;;;16.42;56.46
56514;BME280;62152;52.078;8.414;2023-02-03T02:37:25;100612.56;;;16.42;56.01
56514;BME280;62152;52.078;8.414;2023-02-03T02:41:43;100625.88;;;16.44;56.08
56514;BME280;62152;52.078;8.414;2023-02-03T02:45:51;100623.16;;;16.44;56.17
56514;BME280;62152;52.078;8.414;2023-02-03T02:50:04;100657.16;;;16.42;56.04
56514;BME280;62152;52.078;8.414;2023-02-03T02:54:17;100663.78;;;16.41;56.39
56514;BME280;62152;52.078;8.414;2023-02-03T02:58:23;100673.56;;;16.42;56.40
56514;BME280;62152;52.078;8.414;2023-02-03T03:02:31;100672.78;;;16.42;56.06
56514;BME280;62152;52.078;8.414;2023-02-03T03:06:38;100654.75;;;16.41;56.23
56514;BME280;62152;52.078;8.414;2023-02-03T03:10:45;100655.56;;;16.41;55.81
56514;BME280;62152;52.078;8.414;2023-02-03T03:14:51;100634.47;;;16.42;56.54
56514;BME280;62152;52.078;8.414;2023-02-03T03:19:00;100640.28;;;16.40;56.51
56514;BME280;62152;52.078;8.414;2023-02-03T03:23:24;100631.25;;;16.40;56.33
56514;BME280;62152;52.078;8.414;2023-02-03T03:27:35;100639.94;;;16.42;55.93
56514;BME280;62152;52.078;8.414;2023-02-03T03:31:42;100618.03;;;16.42;56.03
56514;BME280;62152;52.078;8.414;2023-02-03T03:35:49;100623.50;;;16.42;56.54
56514;BME280;62152;52.078;8.414;2023-02-03T03:40:00;100621.91;;;16.41;56.23
56514;BME280;62152;52.078;8.414;2023-02-03T03:44:12;100625.44;;;16.41;56.47
56514;BME280;62152;52.078;8.414;2023-02-03T03:48:19;100609.81;;;16.42;56.05
56514;BME280;62152;52.078;8.414;2023-02-03T03:52:29;100598.06;;;16.41;56.18
56514;BME280;62152;52.078;8.414;2023-02-03T03:56:40;100598.88;;;16.42;55.96
56514;BME280;62152;52.078;8.414;2023-02-03T04:00:48;100605.47;;;16.41;56.02
56514;BME280;62152;52.078;8.414;2023-02-03T04:04:50;100598.88;;;16.42;56.41
56514;BME280;62152;52.078;8.414;2023-02-03T04:08:53;100599.66;;;16.42;56.10
56514;BME280;62152;52.078;8.414;2023-02-03T04:12:56;100587.13;;;16.41;56.38
56514;BME280;62152;52.078;8.414;2023-02-03T04:16:58;100598.88;;;16.42;56.35
56514;BME280;62152;52.078;8.414;2023-02-03T04:20:59;100597.28;;;16.41;56.01
56514;BME280;62152;52.078;8.414;2023-02-03T04:25:00;100601.59;;;16.42;56.41
56514;BME280;62152;52.078;8.414;2023-02-03T04:29:02;100595.66;;;16.40;56.26
56514;BME280;62152;52.078;8.414;2023-02-03T04:33:03;100598.88;;;16.42;56.28
56514;BME280;62152;52.078;8.414;2023-02-03T04:37:04;100587.22;;;16.33;56.53
56514;BME280;62152;52.078;8.414;2023-02-03T04:41:05;100602.97;;;16.11;56.28
56514;BME280;62152;52.078;8.414;2023-02-03T04:45:09;100582.81;;;15.92;56.59
56514;BME280;62152;52.078;8.414;2023-02-03T04:49:11;100584.75;;;15.91;56.15
56514;BME280;62152;52.078;8.414;2023-02-03T04:53:12;100571.97;;;15.95;55.73
56514;BME280;62152;52.078;8.414;2023-02-03T04:57:13;100577.69;;;15.90;55.58
56514;BME280;62152;52.078;8.414;2023-02-03T05:01:15;100566.94;;;15.85;55.22
56514;BME280;62152;52.078;8.414;2023-02-03T05:05:16;100555.81;;;15.66;54.84
56514;BME280;62152;52.078;8.414;2023-02-03T05:09:17;100553.28;;;15.73;55.70
56514;BME280;62152;52.078;8.414;2023-02-03T05:13:17;100561.72;;;16.17;55.60
56514;BME280;62152;52.078;8.414;2023-02-03T05:17:20;100550.69;;;16.53;55.67
56514;BME280;62152;52.078;8.414;2023-02-03T05:21:21;100549.75;;;16.61;55.71
56514;BME280;62152;52.078;8.414;2023-02-03T05:25:22;100546.13;;;16.57;55.80
56514;BME280;62152;52.078;8.414;2023-02-03T05:29:24;100558.59;;;16.42;56.01
56514;BME280;62152;52.078;8.414;2023-02-03T05:33:26;100547.44;;;16.35;56.31
56514;BME280;62152;52.078;8.414;2023-02-03T05:37:28;100543.41;;;16.33;56.13
56514;BME280;62152;52.078;8.414;2023-02-03T05:41:28;100546.50;;;16.31;56.27
56514;BME280;62152;52.078;8.414;2023-02-03T05:45:30;100537.50;;;16.31;55.96
56514;BME280;62152;52.078;8.414;2023-02-03T05:49:32;100552.00;;;16.31;56.06
56514;BME280;62152;52.078;8.414;2023-02-03T05:53:33;100555.88;;;16.30;56.04
56514;BME280;62152;52.078;8.414;2023-02-03T05:57:34;100569.22;;;16.32;56.02
56514;BME280;62152;52.078;8.414;2023-02-03T06:01:35;100555.88;;;16.30;56.19
56514;BME280;62152;52.078;8.414;2023-02-03T06:05:38;100552.00;;;16.31;55.96
56514;BME280;62152;52.078;8.414;2023-02-03T06:09:38;100555.53;;;16.32;56.21
56514;BME280;62152;52.078;8.414;2023-02-03T06:13:39;100562.94;;;16.31;55.88
56514;BME280;62152;52.078;8.414;2023-02-03T06:17:43;100552.78;;;16.32;56.08
56514;BME280;62152;52.078;8.414;2023-02-03T06:21:45;100542.97;;;16.31;55.99
56514;BME280;62152;52.078;8.414;2023-02-03T06:25:47;100550.03;;;16.32;55.96
56514;BME280;62152;52.078;8.414;2023-02-03T06:29:49;100558.25;;;16.32;56.19
56514;BME280;62152;52.078;8.414;2023-02-03T06:33:50;100547.31;;;16.32;56.18
56514;BME280;62152;52.078;8.414;2023-02-03T06:37:53;100539.88;;;16.32;55.61
56514;BME280;62152;52.078;8.414;2023-02-03T06:41:53;100547.31;;;16.32;56.04
56514;BME280;62152;52.078;8.414;2023-02-03T06:45:54;100557.47;;;16.31;55.63
56514;BME280;62152;52.078;8.414;2023-02-03T06:49:55;100555.53;;;16.32;56.01
56514;BME280;62152;52.078;8.414;2023-02-03T06:53:57;100550.03;;;16.32;56.15
56514;BME280;62152;52.078;8.414;2023-02-03T06:57:58;100548.09;;;16.32;56.02
56514;BME280;62152;52.078;8.414;2023-02-03T07:01:59;100535.56;;;16.31;55.81
56514;BME280;62152;52.078;8.414;2023-02-03T07:06:00;100546.16;;;16.33;55.79
56514;BME280;62152;52.078;8.414;2023-02-03T07:10:02;100541.84;;;16.32;56.19
56514;BME280;62152;52.078;8.414;2023-02-03T07:14:03;100541.84;;;16.32;56.03
56514;BME280;62152;52.078;8.414;2023-02-03T07:18:04;100541.84;;;16.32;55.96
56514;BME280;62152;52.078;8.414;2023-02-03T07:22:05;100531.69;;;16.32;56.00
56514;BME280;62152;52.078;8.414;2023-02-03T07:26:09;100524.25;;;16.33;55.98
56514;BME280;62152;52.078;8.414;2023-02-03T07:30:11;100524.25;;;16.33;56.38
56514;BME280;62152;52.078;8.414;2023-02-03T07:34:13;100524.25;;;16.33;56.09
56514;BME280;62152;52.078;8.414;2023-02-03T07:38:14;100535.22;;;16.33;55.81
56514;BME280;62152;52.078;8.414;2023-02-03T07:42:16;100521.53;;;16.33;55.83
56514;BME280;62152;52.078;8.414;2023-02-03T07:46:19;100511.72;;;16.32;56.12
56514;BME280;62152;52.078;8.414;2023-02-03T07:50:20;100511.41;;;16.33;56.02
56514;BME280;62152;52.078;8.414;2023-02-03T07:54:21;100518.78;;;16.33;56.03
56514;BME280;62152;52.078;8.414;2023-02-03T07:58:23;100513.31;;;16.33;56.00
56514;BME280;62152;52.078;8.414;2023-02-03T08:02:24;100513.31;;;16.33;56.08
56514;BME280;62152;52.078;8.414;2023-02-03T08:06:25;100527.00;;;16.33;56.08
56514;BME280;62152;52.078;8.414;2023-02-03T08:10:26;100530.22;;;16.35;55.68
56514;BME280;62152;52.078;8.414;2023-02-03T08:14:28;100538.78;;;16.33;55.91
56514;BME280;62152;52.078;8.414;2023-02-03T08:18:29;100527.00;;;16.33;55.93
56514;BME280;62152;52.078;8.414;2023-02-03T08:22:29;100527.81;;;16.33;56.05
56514;BME280;62152;52.078;8.414;2023-02-03T08:26:30;100534.91;;;16.34;56.26
56514;BME280;62152;52.078;8.414;2023-02-03T08:30:33;100521.53;;;16.33;56.16
56514;BME280;62152;52.078;8.414;2023-02-03T08:34:34;100527.00;;;16.33;56.18
56514;BME280;62152;52.078;8.414;2023-02-03T08:38:34;100518.78;;;16.33;56.08
56514;BME280;62152;52.078;8.414;2023-02-03T08:42:35;100518.78;;;16.33;55.80
56514;BME280;62152;52.078;8.414;2023-02-03T08:46:38;100533.31;;;16.33;56.04
56514;BME280;62152;52.078;8.414;2023-02-03T08:50:40;100522.00;;;16.35;55.93
56514;BME280;62152;52.078;8.414;2023-02-03T08:54:42;100510.56;;;16.33;56.13
56514;BME280;62152;52.078;8.414;2023-02-03T08:58:43;100493.03;;;16.34;56.02
56514;BME280;62152;52.078;8.414;2023-02-03T09:02:45;100482.88;;;16.34;55.74
56514;BME280;62152;52.078;8.414;2023-02-03T09:06:47;100497.38;;;16.35;56.00
56514;BME280;62152;52.078;8.414;2023-02-03T09:10:48;100503.19;;;16.33;55.96
56514;BME280;62152;52.078;8.414;2023-02-03T09:14:48;100510.56;;;16.33;56.12
56514;BME280;62152;52.078;8.414;2023-02-03T09:18:51;100512.19;;;16.34;56.10
56514;BME280;62152;52.078;8.414;2023-02-03T09:22:51;100520.41;;;16.34;56.24
56514;BME280;62152;52.078;8.414;2023-02-03T09:26:52;100518.78;;;16.33;55.96
56514;BME280;62152;52.078;8.414;2023-02-03T09:30:53;100523.16;;;16.34;56.12
56514;BME280;62152;52.078;8.414;2023-02-03T09:34:55;100517.66;;;16.34;55.87
56514;BME280;62152;52.078;8.414;2023-02-03T09:38:56;100524.75;;;16.35;56.00
56514;BME280;62152;52.078;8.414;2023-02-03T09:43:12;100506.72;;;16.34;56.09
56514;BME280;62152;52.078;8.414;2023-02-03T09:47:34;100512.19;;;16.34;56.03
56514;BME280;62152;52.078;8.414;2023-02-03T09:51:44;100517.66;;;16.34;55.95
56514;BME280;62152;52.078;8.414;2023-02-03T09:55:50;100521.53;;;16.33;55.78
56514;BME280;62152;52.078;8.414;2023-02-03T09:59:53;100517.66;;;16.34;56.04
56514;BME280;62152;52.078;8.414;2023-02-03T10:04:03;100524.75;;;16.35;56.30
56514;BME280;62152;52.078;8.414;2023-02-03T10:08:25;100532.94;;;16.35;56.08
56514;BME280;62152;52.078;8.414;2023-02-03T10:12:58;100530.22;;;16.35;55.88
56514;BME280;62152;52.078;8.414;2023-02-03T10:17:23;100549.38;;;16.35;55.95
56514;BME280;62152;52.078;8.414;2023-02-03T10:21:36;100561.13;;;16.35;55.94
56514;BME280;62152;52.078;8.414;2023-02-03T10:25:44;100564.22;;;16.34;56.21
56514;BME280;62152;52.078;8.414;2023-02-03T10:29:55;100562.59;;;16.33;55.87
56514;BME280;62152;52.078;8.414;2023-02-03T10:34:08;100575.16;;;16.34;55.54
56514;BME280;62152;52.078;8.414;2023-02-03T10:38:18;100561.47;;;16.34;55.97
56514;BME280;62152;52.078;8.414;2023-02-03T10:42:33;100573.22;;;16.34;55.77
56514;BME280;62152;52.078;8.414;2023-02-03T10:46:38;100574.81;;;16.35;55.98
56514;BME280;62152;52.078;8.414;2023-02-03T10:50:46;100568.53;;;16.35;56.09
56514;BME280;62152;52.078;8.414;2023-02-03T10:54:49;100573.22;;;16.34;56.04
56514;BME280;62152;52.078;8.414;2023-02-03T10:58:53;100576.41;;;16.36;55.98
56514;BME280;62152;52.078;8.414;2023-02-03T11:03:00;100589.63;;;16.34;56.02
56514;BME280;62152;52.078;8.414;2023-02-03T11:07:06;100600.25;;;16.36;55.99
56514;BME280;62152;52.078;8.414;2023-02-03T11:11:25;100599.44;;;16.35;55.96
56514;BME280;62152;52.078;8.414;2023-02-03T11:15:29;100609.59;;;16.35;55.80
56514;BME280;62152;52.078;8.414;2023-02-03T11:19:30;100599.78;;;16.34;55.78
56514;BME280;62152;52.078;8.414;2023-02-03T11:23:31;100604.13;;;16.35;56.02
56514;BME280;62152;52.078;8.414;2023-02-03T11:27:33;100607.66;;;16.35;56.11
56514;BME280;62152;52.078;8.414;2023-02-03T11:31:35;100610.38;;;16.35;55.98
56514;BME280;62152;52.078;8.414;2023-02-03T11:35:36;100606.50;;;16.36;55.79
56514;BME280;62152;52.078;8.414;2023-02-03T11:39:37;100618.59;;;16.35;55.79
56514;BME280;62152;52.078;8.414;2023-02-03T11:43:38;100605.72;;;16.36;56.09
56514;BME280;62152;52.078;8.414;2023-02-03T11:47:45;100578.34;;;16.36;55.67
56514;BME280;62152;52.078;8.414;2023-02-03T11:51:56;100597.50;;;16.36;55.75
56514;BME280;62152;52.078;8.414;2023-02-03T11:56:28;100610.03;;;16.37;55.70
56514;BME280;62152;52.078;8.414;2023-02-03T12:00:42;100607.31;;;16.37;55.52
56514;BME280;62152;52.078;8.414;2023-02-03T12:05:18;100625.66;;;16.36;55.60
56514;BME280;62152;52.078;8.414;2023-02-03T12:09:55;100631.16;;;16.36;55.91
56514;BME280;62152;52.078;8.414;2023-02-03T12:14:21;100627.25;;;16.37;55.59
56514;BME280;62152;52.078;8.414;2023-02-03T12:18:45;100621.78;;;16.37;56.08
56514;BME280;62152;52.078;8.414;2023-02-03T12:23:08;100628.19;;;16.41;55.68
56514;BME280;62152;52.078;8.414;2023-02-03T12:27:33;100645.41;;;16.42;55.66
56514;BME280;62152;52.078;8.414;2023-02-03T12:31:48;100646.19;;;16.42;55.69
56514;BME280;62152;52.078;8.414;2023-02-03T12:36:04;100644.59;;;16.41;55.33
56514;BME280;62152;52.078;8.414;2023-02-03T12:40:17;100643.81;;;16.41;55.78
56514;BME280;62152;52.078;8.414;2023-02-03T12:44:34;100663.41;;;16.43;55.52
56514;BME280;62152;52.078;8.414;2023-02-03T12:48:50;100673.94;;;16.29;55.65
56514;BME280;62152;52.078;8.414;2023-02-03T12:53:02;100663.81;;;15.84;55.42
56514;BME280;62152;52.078;8.414;2023-02-03T12:57:19;100660.78;;;15.52;54.55
56514;BME280;62152;52.078;8.414;2023-02-03T13:01:31;100679.19;;;15.43;54.07
56514;BME280;62152;52.078;8.414;2023-02-03T13:05:41;100676.44;;;15.43;53.09
56514;BME280;62152;52.078;8.414;2023-02-03T13:09:55;100664.75;;;15.22;53.12
56514;BME280;62152;52.078;8.414;2023-02-03T13:14:10;100659.78;;;15.36;52.18
56514;BME280;62152;52.078;8.414;2023-02-03T13:18:24;100647.81;;;15.28;51.82
56514;BME280;62152;52.078;8.414;2023-02-03T13:22:28;100647.81;;;15.28;51.62
56514;BME280;62152;52.078;8.414;2023-02-03T13:26:56;100652.84;;;15.05;51.19
56514;BME280;62152;52.078;8.414;2023-02-03T13:31:21;100651.59;;;15.03;51.04
56514;BME280;62152;52.078;8.414;2023-02-03T13:35:46;100655.69;;;15.09;51.20
56514;BME280;62152;52.078;8.414;2023-02-03T13:40:16;100667.50;;;15.01;50.92
56514;BME280;62152;52.078;8.414;2023-02-03T13:44:28;100687.63;;;14.96;50.14
56514;BME280;62152;52.078;8.414;2023-02-03T13:48:32;100689.88;;;14.94;50.08
56514;BME280;62152;52.078;8.414;2023-02-03T13:52:38;100685.53;;;14.93;49.58
56514;BME280;62152;52.078;8.414;2023-02-03T13:56:53;100672.56;;;14.90;49.39
56514;BME280;62152;52.078;8.414;2023-02-03T14:01:01;100681.41;;;14.87;48.97
56514;BME280;62152;52.078;8.414;2023-02-03T14:05:44;100692.19;;;14.63;49.46
56514;BME280;62152;52.078;8.414;2023-02-03T14:09:47;100692.47;;;14.70;48.83
56514;BME280;62152;52.078;8.414;2023-02-03T14:14:41;100692.59;;;14.73;48.47
56514;BME280;62152;52.078;8.414;2023-02-03T14:18:45;100693.78;;;14.64;48.71
56514;BME280;62152;52.078;8.414;2023-02-03T14:22:47;100709.97;;;14.69;48.17
56514;BME280;62152;52.078;8.414;2023-02-03T14:26:51;100722.00;;;14.68;48.92
56514;BME280;62152;52.078;8.414;2023-02-03T14:31:05;100730.53;;;14.66;47.87
56514;BME280;62152;52.078;8.414;2023-02-03T14:35:16;100752.47;;;14.49;47.39
56514;BME280;62152;52.078;8.414;2023-02-03T14:40:03;100739.28;;;14.51;48.21
56514;BME280;62152;52.078;8.414;2023-02-03T14:44:27;100757.25;;;14.52;48.59
56514;BME280;62152;52.078;8.414;2023-02-03T14:49:02;100766.75;;;14.46;48.09
56514;BME280;62152;52.078;8.414;2023-02-03T14:53:39;100780.56;;;14.49;47.69
56514;BME280;62152;52.078;8.414;2023-02-03T14:58:00;100784.84;;;14.59;47.75
56514;BME280;62152;52.078;8.414;2023-02-03T15:06:37;100810.72;;;14.53;47.30
56514;BME280;62152;52.078;8.414;2023-02-03T15:10:44;100817.09;;;15.04;50.79
56514;BME280;62152;52.078;8.414;2023-02-03T15:14:46;100829.94;;;15.33;50.16
56514;BME280;62152;52.078;8.414;2023-02-03T15:18:54;100829.69;;;15.47;49.80
56514;BME280;62152;52.078;8.414;2023-02-03T15:22:57;100836.53;;;15.53;50.41
56514;BME280;62152;52.078;8.414;2023-02-03T15:26:58;100845.66;;;15.57;50.49
56514;BME280;62152;52.078;8.414;2023-02-03T15:31:05;100841.50;;;15.59;50.69
56514;BME280;62152;52.078;8.414;2023-02-03T15:35:15;100845.16;;;15.64;50.72
56514;BME280;62152;52.078;8.414;2023-02-03T15:39:33;100849.97;;;15.67;50.69
56514;BME280;62152;52.078;8.414;2023-02-03T15:43:43;100850.44;;;15.69;51.08
56514;BME280;62152;52.078;8.414;2023-02-03T15:47:54;100850.44;;;15.69;51.47
56514;BME280;62152;52.078;8.414;2023-02-03T15:52:08;100858.00;;;15.72;51.75
56514;BME280;62152;52.078;8.414;2023-02-03T15:56:21;100858.47;;;15.74;52.01
56514;BME280;62152;52.078;8.414;2023-02-03T16:00:37;100868.72;;;15.77;52.08
56514;BME280;62152;52.078;8.414;2023-02-03T16:04:42;100874.69;;;15.79;52.28
56514;BME280;62152;52.078;8.414;2023-02-03T16:08:45;100882.88;;;15.79;52.11
56514;BME280;62152;52.078;8.414;2023-02-03T16:12:46;100897.34;;;15.79;52.59
56514;BME280;62152;52.078;8.414;2023-02-03T16:16:49;100888.81;;;15.81;52.25
56514;BME280;62152;52.078;8.414;2023-02-03T16:20:52;100910.34;;;15.82;52.63
56514;BME280;62152;52.078;8.414;2023-02-03T16:24:53;100909.38;;;15.87;52.89
56514;BME280;62152;52.078;8.414;2023-02-03T16:29:04;100915.16;;;15.85;52.65
56514;BME280;62152;52.078;8.414;2023-02-03T16:33:15;100917.06;;;15.85;52.84
56514;BME280;62152;52.078;8.414;2023-02-03T16:37:23;100930.44;;;15.86;52.80
56514;BME280;62152;52.078;8.414;2023-02-03T16:41:26;100919.50;;;15.86;53.05
56514;BME280;62152;52.078;8.414;2023-02-03T16:45:26;100929.31;;;15.88;52.79
56514;BME280;62152;52.078;8.414;2023-02-03T16:49:27;100931.25;;;15.87;52.70
56514;BME280;62152;52.078;8.414;2023-02-03T16:53:31;100935.56;;;15.88;53.26
56514;BME280;62152;52.078;8.414;2023-02-03T16:57:32;100921.91;;;15.88;52.94
56514;BME280;62152;52.078;8.414;2023-02-03T17:01:34;100920.75;;;15.89;53.02
56514;BME280;62152;52.078;8.414;2023-02-03T17:05:35;100903.13;;;15.99;54.49
56514;BME280;62152;52.078;8.414;2023-02-03T17:09:38;100921.91;;;16.09;55.25
56514;BME280;62152;52.078;8.414;2023-02-03T17:13:39;100920.84;;;16.01;54.93
56514;BME280;62152;52.078;8.414;2023-02-03T17:17:40;100925.03;;;15.99;55.37
56514;BME280;62152;52.078;8.414;2023-02-03T17:21:40;100934.06;;;15.99;55.80
56514;BME280;62152;52.078;8.414;2023-02-03T17:25:44;100943.38;;;15.98;55.51
56514;BME280;62152;52.078;8.414;2023-02-03T17:29:46;100938.69;;;15.99;55.46
56514;BME280;62152;52.078;8.414;2023-02-03T17:33:50;100945.81;;;16.00;55.19
56514;BME280;62152;52.078;8.414;2023-02-03T17:37:51;100956.75;;;16.00;55.96
56514;BME280;62152;52.078;8.414;2023-02-03T17:41:53;100968.16;;;16.02;56.07
56514;BME280;62152;52.078;8.414;2023-02-03T17:45:57;100970.88;;;16.02;55.68
56514;BME280;62152;52.078;8.414;2023-02-03T17:49:58;100982.63;;;16.02;55.84
56514;BME280;62152;52.078;8.414;2023-02-03T17:53:59;100979.91;;;16.02;56.02
56514;BME280;62152;52.078;8.414;2023-02-03T17:58:01;100987.75;;;16.04;55.99
56514;BME280;62152;52.078;8.414;2023-02-03T18:02:02;100984.22;;;16.03;56.49
56514;BME280;62152;52.078;8.414;2023-02-03T18:06:04;100983.88;;;16.05;56.61
56514;BME280;62152;52.078;8.414;2023-02-03T18:10:06;100992.09;;;16.05;56.39
56514;BME280;62152;52.078;8.414;2023-02-03T18:14:10;100991.00;;;16.06;56.09
56514;BME280;62152;52.078;8.414;2023-02-03T18:18:13;100992.91;;;16.05;56.51
56514;BME280;62152;52.078;8.414;2023-02-03T18:22:13;101006.28;;;16.07;56.26
56514;BME280;62152;52.078;8.414;2023-02-03T18:26:15;101021.56;;;16.08;56.20
56514;BME280;62152;52.078;8.414;2023-02-03T18:30:18;101029.44;;;16.09;57.11
56514;BME280;62152;52.078;8.414;2023-02-03T18:34:19;101035.22;;;16.08;56.82
56514;BME280;62152;52.078;8.414;2023-02-03T18:38:20;101050.50;;;16.09;57.17
56514;BME280;62152;52.078;8.414;2023-02-03T18:42:20;101063.53;;;16.12;56.64
56514;BME280;62152;52.078;8.414;2023-02-03T18:46:24;101067.41;;;16.11;57.18
56514;BME280;62152;52.078;8.414;2023-02-03T18:50:26;101062.72;;;16.11;57.10
56514;BME280;62152;52.078;8.414;2023-02-03T18:54:27;101060.31;;;16.10;57.43
56514;BME280;62152;52.078;8.414;2023-02-03T18:58:28;101073.03;;;16.14;57.46
56514;BME280;62152;52.078;8.414;2023-02-03T19:02:30;101081.56;;;16.13;56.75
56514;BME280;62152;52.078;8.414;2023-02-03T19:06:33;101089.44;;;16.14;56.71
56514;BME280;62152;52.078;8.414;2023-02-03T19:10:34;101100.41;;;16.14;57.17
56514;BME280;62152;52.078;8.414;2023-02-03T19:14:36;101101.19;;;16.15;57.66
56514;BME280;62152;52.078;8.414;2023-02-03T19:18:38;101109.06;;;16.17;57.38
56514;BME280;62152;52.078;8.414;2023-02-03T19:22:39;101123.88;;;16.16;57.32
56514;BME280;62152;52.078;8.414;2023-02-03T19:26:40;101121.16;;;16.16;57.84
56514;BME280;62152;52.078;8.414;2023-02-03T19:30:41;101135.31;;;16.18;57.83
56514;BME280;62152;52.078;8.414;2023-02-03T19:34:43;101132.56;;;16.18;57.94
56514;BME280;62152;52.078;8.414;2023-02-03T19:38:44;101136.44;;;16.17;57.72
56514;BME280;62152;52.078;8.414;2023-02-03T19:42:45;101145.13;;;16.19;57.80
56514;BME280;62152;52.078;8.414;2023-02-03T19:46:46;101145.13;;;16.19;57.70
56514;BME280;62152;52.078;8.414;2023-02-03T19:50:48;101162.34;;;16.19;57.50
56514;BME280;62152;52.078;8.414;2023-02-03T19:54:49;101154.94;;;16.20;58.23
56514;BME280;62152;52.078;8.414;2023-02-03T19:58:50;101153.31;;;16.19;57.98
56514;BME280;62152;52.078;8.414;2023-02-03T20:02:51;101161.53;;;16.19;58.12
56514;BME280;62152;52.078;8.414;2023-02-03T20:06:53;101163.16;;;16.20;57.76
56514;BME280;62152;52.078;8.414;2023-02-03T20:10:54;101168.63;;;16.20;58.09
56514;BME280;62152;52.078;8.414;2023-02-03T20:14:55;101171.84;;;16.22;57.88
56514;BME280;62152;52.078;8.414;2023-02-03T20:18:57;101179.25;;;16.21;57.70
56514;BME280;62152;52.078;8.414;2023-02-03T20:22:59;101167.16;;;16.22;58.47
56514;BME280;62152;52.078;8.414;2023-02-03T20:27:00;101177.31;;;16.22;58.24
56514;BME280;62152;52.078;8.414;2023-02-03T20:31:01;101175.38;;;16.22;58.30
56514;BME280;62152;52.078;8.414;2023-02-03T20:35:03;101194.53;;;16.22;58.04
56514;BME280;62152;52.078;8.414;2023-02-03T20:39:08;101213.38;;;16.24;58.09
56514;BME280;62152;52.078;8.414;2023-02-03T20:43:18;101200.81;;;16.23;58.53
56514;BME280;62152;52.078;8.414;2023-02-03T20:47:20;101211.75;;;16.23;58.62
56514;BME280;62152;52.078;8.414;2023-02-03T20:51:20;101209.50;;;16.25;58.43
56514;BME280;62152;52.078;8.414;2023-02-03T20:55:22;101223.19;;;16.25;58.44
56514;BME280;62152;52.078;8.414;2023-02-03T20:59:23;101207.88;;;16.24;58.40
56514;BME280;62152;52.078;8.414;2023-02-03T21:03:25;101227.06;;;16.24;57.68
56514;BME280;62152;52.078;8.414;2023-02-03T21:07:28;101236.06;;;16.24;57.72
56514;BME280;62152;52.078;8.414;2023-02-03T21:11:30;101232.88;;;16.22;57.11
56514;BME280;62152;52.078;8.414;2023-02-03T21:15:31;101243.81;;;16.22;57.07
56514;BME280;62152;52.078;8.414;2023-02-03T21:19:32;101244.94;;;16.21;57.42
56514;BME280;62152;52.078;8.414;2023-02-03T21:23:38;101252.81;;;16.23;57.16
56514;BME280;62152;52.078;8.414;2023-02-03T21:27:44;101253.97;;;16.22;56.77
56514;BME280;62152;52.078;8.414;2023-02-03T21:31:46;101258.28;;;16.23;56.86
56514;BME280;62152;52.078;8.414;2023-02-03T21:35:47;101253.97;;;16.22;57.15